sensor_id;sensor_type;location;lat;lon;timestamp;P1;durP1;ratioP1;P2;durP2;ratioP2
17141;SDS011;32805;53.556;9.944;2022-12-18T00:01:31;39.42;;;22.48;;
17141;SDS011;32805;53.556;9.944;2022-12-18T00:04:01;34.33;;;21.33;;
17141;SDS011;32805;53.556;9.944;2022-12-18T00:06:33;32.30;;;23.38;;
17141;SDS011;32805;53.556;9.944;2022-12-18T00:09:05;32.90;;;23.50;;
17141;SDS011;32805;53.556;9.944;2022-12-18T00:11:33;24.80;;;19.27;;
17141;SDS011;32805;53.556;9.944;2022-12-18T00:14:01;35.10;;;23.70;;
17141;SDS011;32805;53.556;9.944;2022-12-18T00:16:29;43.95;;;28.67;;
17141;SDS011;32805;53.556;9.944;2022-12-18T00:18:59;43.88;;;27.10;;
17141;SDS011;32805;53.556;9.944;2022-12-18T00:21:27;35.42;;;25.52;;
17141;SDS011;32805;53.556;9.944;2022-12-18T00:24:01;34.15;;;20.92;;
17141;SDS011;32805;53.556;9.944;2022-12-18T00:29:52;33.17;;;19.80;;
17141;SDS011;32805;53.556;9.944;2022-12-18T00:32:50;29.50;;;19.08;;
17141;SDS011;32805;53.556;9.944;2022-12-18T00:38:27;41.42;;;26.15;;
17141;SDS011;32805;53.556;9.944;2022-12-18T00:45:06;40.92;;;23.35;;
17141;SDS011;32805;53.556;9.944;2022-12-18T00:48:54;34.17;;;19.90;;
17141;SDS011;32805;53.556;9.944;2022-12-18T00:52:23;52.13;;;29.77;;
17141;SDS011;32805;53.556;9.944;2022-12-18T00:55:32;29.38;;;19.10;;
17141;SDS011;32805;53.556;9.944;2022-12-18T00:58:26;50.65;;;36.05;;
17141;SDS011;32805;53.556;9.944;2022-12-18T01:01:06;39.38;;;31.88;;
17141;SDS011;32805;53.556;9.944;2022-12-18T01:03:36;28.90;;;23.50;;
17141;SDS011;32805;53.556;9.944;2022-12-18T01:06:19;34.08;;;22.05;;
17141;SDS011;32805;53.556;9.944;2022-12-18T01:08:52;27.23;;;18.65;;
17141;SDS011;32805;53.556;9.944;2022-12-18T01:11:25;37.92;;;24.13;;
17141;SDS011;32805;53.556;9.944;2022-12-18T01:13:57;27.35;;;18.98;;
17141;SDS011;32805;53.556;9.944;2022-12-18T01:16:35;29.55;;;21.42;;
17141;SDS011;32805;53.556;9.944;2022-12-18T01:19:11;31.60;;;20.58;;
17141;SDS011;32805;53.556;9.944;2022-12-18T01:21:43;46.97;;;30.23;;
17141;SDS011;32805;53.556;9.944;2022-12-18T01:24:17;39.47;;;26.98;;
17141;SDS011;32805;53.556;9.944;2022-12-18T01:26:53;28.38;;;16.92;;
17141;SDS011;32805;53.556;9.944;2022-12-18T01:29:23;35.10;;;23.73;;
17141;SDS011;32805;53.556;9.944;2022-12-18T01:31:57;21.17;;;14.80;;
17141;SDS011;32805;53.556;9.944;2022-12-18T01:34:30;37.63;;;16.63;;
17141;SDS011;32805;53.556;9.944;2022-12-18T01:37:04;23.20;;;14.07;;
17141;SDS011;32805;53.556;9.944;2022-12-18T01:39:35;25.45;;;16.55;;
17141;SDS011;32805;53.556;9.944;2022-12-18T01:42:08;38.20;;;16.23;;
17141;SDS011;32805;53.556;9.944;2022-12-18T01:44:53;23.42;;;14.98;;
17141;SDS011;32805;53.556;9.944;2022-12-18T01:47:57;23.55;;;14.45;;
17141;SDS011;32805;53.556;9.944;2022-12-18T01:50:29;21.02;;;13.98;;
17141;SDS011;32805;53.556;9.944;2022-12-18T01:53:02;22.17;;;12.50;;
17141;SDS011;32805;53.556;9.944;2022-12-18T01:55:40;21.92;;;13.02;;
17141;SDS011;32805;53.556;9.944;2022-12-18T01:58:24;20.73;;;12.52;;
17141;SDS011;32805;53.556;9.944;2022-12-18T02:00:56;21.95;;;12.77;;
17141;SDS011;32805;53.556;9.944;2022-12-18T02:06:23;17.52;;;10.57;;
17141;SDS011;32805;53.556;9.944;2022-12-18T02:09:00;16.17;;;9.25;;
17141;SDS011;32805;53.556;9.944;2022-12-18T02:11:37;18.75;;;10.60;;
17141;SDS011;32805;53.556;9.944;2022-12-18T02:14:23;20.20;;;10.43;;
17141;SDS011;32805;53.556;9.944;2022-12-18T02:17:11;19.25;;;11.35;;
17141;SDS011;32805;53.556;9.944;2022-12-18T02:19:58;14.02;;;9.73;;
17141;SDS011;32805;53.556;9.944;2022-12-18T02:22:59;17.65;;;11.00;;
17141;SDS011;32805;53.556;9.944;2022-12-18T02:25:40;17.85;;;9.75;;
17141;SDS011;32805;53.556;9.944;2022-12-18T02:28:22;15.23;;;10.10;;
17141;SDS011;32805;53.556;9.944;2022-12-18T02:31:02;14.80;;;8.57;;
17141;SDS011;32805;53.556;9.944;2022-12-18T02:33:38;15.25;;;9.35;;
17141;SDS011;32805;53.556;9.944;2022-12-18T02:36:11;16.38;;;10.13;;
17141;SDS011;32805;53.556;9.944;2022-12-18T02:38:46;18.35;;;11.43;;
17141;SDS011;32805;53.556;9.944;2022-12-18T02:41:28;16.02;;;9.88;;
17141;SDS011;32805;53.556;9.944;2022-12-18T02:43:58;13.85;;;9.10;;
17141;SDS011;32805;53.556;9.944;2022-12-18T02:46:32;11.77;;;8.88;;
17141;SDS011;32805;53.556;9.944;2022-12-18T02:49:23;15.95;;;9.63;;
17141;SDS011;32805;53.556;9.944;2022-12-18T02:52:01;16.05;;;9.45;;
17141;SDS011;32805;53.556;9.944;2022-12-18T02:54:41;13.23;;;8.82;;
17141;SDS011;32805;53.556;9.944;2022-12-18T02:57:32;13.20;;;8.70;;
17141;SDS011;32805;53.556;9.944;2022-12-18T03:00:06;12.50;;;9.00;;
17141;SDS011;32805;53.556;9.944;2022-12-18T03:02:39;15.52;;;8.40;;
17141;SDS011;32805;53.556;9.944;2022-12-18T03:05:13;12.00;;;8.45;;
17141;SDS011;32805;53.556;9.944;2022-12-18T03:07:51;18.05;;;9.15;;
17141;SDS011;32805;53.556;9.944;2022-12-18T03:10:25;15.73;;;9.20;;
17141;SDS011;32805;53.556;9.944;2022-12-18T03:13:00;14.82;;;8.38;;
17141;SDS011;32805;53.556;9.944;2022-12-18T03:15:34;12.38;;;8.52;;
17141;SDS011;32805;53.556;9.944;2022-12-18T03:18:09;12.77;;;8.48;;
17141;SDS011;32805;53.556;9.944;2022-12-18T03:20:42;11.75;;;9.00;;
17141;SDS011;32805;53.556;9.944;2022-12-18T03:23:17;12.95;;;8.70;;
17141;SDS011;32805;53.556;9.944;2022-12-18T03:25:52;14.45;;;9.20;;
17141;SDS011;32805;53.556;9.944;2022-12-18T03:28:33;13.10;;;9.00;;
17141;SDS011;32805;53.556;9.944;2022-12-18T03:31:07;13.75;;;8.77;;
17141;SDS011;32805;53.556;9.944;2022-12-18T03:33:39;12.45;;;8.18;;
17141;SDS011;32805;53.556;9.944;2022-12-18T03:36:13;12.45;;;8.75;;
17141;SDS011;32805;53.556;9.944;2022-12-18T03:38:44;14.15;;;7.65;;
17141;SDS011;32805;53.556;9.944;2022-12-18T03:41:14;13.80;;;8.65;;
17141;SDS011;32805;53.556;9.944;2022-12-18T03:44:11;13.98;;;8.15;;
17141;SDS011;32805;53.556;9.944;2022-12-18T03:46:46;12.07;;;8.20;;
17141;SDS011;32805;53.556;9.944;2022-12-18T03:49:25;12.73;;;8.93;;
17141;SDS011;32805;53.556;9.944;2022-12-18T03:52:02;13.57;;;8.18;;
17141;SDS011;32805;53.556;9.944;2022-12-18T03:54:36;14.68;;;8.85;;
17141;SDS011;32805;53.556;9.944;2022-12-18T03:57:13;14.27;;;8.63;;
17141;SDS011;32805;53.556;9.944;2022-12-18T03:59:49;17.73;;;9.80;;
17141;SDS011;32805;53.556;9.944;2022-12-18T04:02:25;11.85;;;8.98;;
17141;SDS011;32805;53.556;9.944;2022-12-18T04:04:58;14.98;;;8.20;;
17141;SDS011;32805;53.556;9.944;2022-12-18T04:07:30;11.88;;;7.60;;
17141;SDS011;32805;53.556;9.944;2022-12-18T04:09:59;12.23;;;7.80;;
17141;SDS011;32805;53.556;9.944;2022-12-18T04:12:30;14.90;;;8.52;;
17141;SDS011;32805;53.556;9.944;2022-12-18T04:14:59;10.70;;;7.68;;
17141;SDS011;32805;53.556;9.944;2022-12-18T04:17:28;11.77;;;7.80;;
17141;SDS011;32805;53.556;9.944;2022-12-18T04:19:56;13.13;;;8.25;;
17141;SDS011;32805;53.556;9.944;2022-12-18T04:22:24;14.27;;;8.80;;
17141;SDS011;32805;53.556;9.944;2022-12-18T04:24:57;15.00;;;8.50;;
17141;SDS011;32805;53.556;9.944;2022-12-18T04:27:32;16.25;;;7.93;;
17141;SDS011;32805;53.556;9.944;2022-12-18T04:30:02;14.50;;;8.45;;
17141;SDS011;32805;53.556;9.944;2022-12-18T04:32:32;16.55;;;8.63;;
17141;SDS011;32805;53.556;9.944;2022-12-18T04:35:03;13.88;;;8.20;;
17141;SDS011;32805;53.556;9.944;2022-12-18T04:37:34;11.32;;;7.78;;
17141;SDS011;32805;53.556;9.944;2022-12-18T04:40:04;11.57;;;7.80;;
17141;SDS011;32805;53.556;9.944;2022-12-18T04:42:39;11.43;;;8.07;;
17141;SDS011;32805;53.556;9.944;2022-12-18T04:45:09;12.05;;;7.93;;
17141;SDS011;32805;53.556;9.944;2022-12-18T04:47:37;11.45;;;8.02;;
17141;SDS011;32805;53.556;9.944;2022-12-18T04:50:08;11.30;;;7.28;;
17141;SDS011;32805;53.556;9.944;2022-12-18T04:52:47;11.52;;;8.15;;
17141;SDS011;32805;53.556;9.944;2022-12-18T04:55:15;13.88;;;8.65;;
17141;SDS011;32805;53.556;9.944;2022-12-18T04:57:43;10.15;;;7.55;;
17141;SDS011;32805;53.556;9.944;2022-12-18T05:00:13;13.85;;;8.35;;
17141;SDS011;32805;53.556;9.944;2022-12-18T05:02:41;12.82;;;7.93;;
17141;SDS011;32805;53.556;9.944;2022-12-18T05:05:11;11.27;;;7.20;;
17141;SDS011;32805;53.556;9.944;2022-12-18T05:07:39;11.32;;;7.35;;
17141;SDS011;32805;53.556;9.944;2022-12-18T05:10:07;12.55;;;7.63;;
17141;SDS011;32805;53.556;9.944;2022-12-18T05:12:36;12.52;;;8.13;;
17141;SDS011;32805;53.556;9.944;2022-12-18T05:15:28;13.10;;;7.70;;
17141;SDS011;32805;53.556;9.944;2022-12-18T05:17:57;13.20;;;8.60;;
17141;SDS011;32805;53.556;9.944;2022-12-18T05:20:25;16.58;;;8.52;;
17141;SDS011;32805;53.556;9.944;2022-12-18T05:22:54;12.30;;;7.88;;
17141;SDS011;32805;53.556;9.944;2022-12-18T05:25:22;14.95;;;8.15;;
17141;SDS011;32805;53.556;9.944;2022-12-18T05:27:51;14.27;;;8.60;;
17141;SDS011;32805;53.556;9.944;2022-12-18T05:30:21;10.95;;;7.45;;
17141;SDS011;32805;53.556;9.944;2022-12-18T05:32:51;12.52;;;7.40;;
17141;SDS011;32805;53.556;9.944;2022-12-18T05:35:20;11.07;;;8.07;;
17141;SDS011;32805;53.556;9.944;2022-12-18T05:37:48;10.77;;;7.72;;
17141;SDS011;32805;53.556;9.944;2022-12-18T05:40:16;14.68;;;9.07;;
17141;SDS011;32805;53.556;9.944;2022-12-18T05:42:47;14.93;;;8.85;;
17141;SDS011;32805;53.556;9.944;2022-12-18T05:45:14;12.85;;;8.50;;
17141;SDS011;32805;53.556;9.944;2022-12-18T05:47:42;14.32;;;9.30;;
17141;SDS011;32805;53.556;9.944;2022-12-18T05:50:11;16.52;;;8.82;;
17141;SDS011;32805;53.556;9.944;2022-12-18T05:52:40;13.60;;;8.85;;
17141;SDS011;32805;53.556;9.944;2022-12-18T05:55:08;12.50;;;8.68;;
17141;SDS011;32805;53.556;9.944;2022-12-18T05:57:41;13.00;;;9.90;;
17141;SDS011;32805;53.556;9.944;2022-12-18T06:00:12;13.82;;;9.85;;
17141;SDS011;32805;53.556;9.944;2022-12-18T06:02:46;15.70;;;9.70;;
17141;SDS011;32805;53.556;9.944;2022-12-18T06:05:16;17.95;;;10.30;;
17141;SDS011;32805;53.556;9.944;2022-12-18T06:07:45;17.20;;;10.30;;
17141;SDS011;32805;53.556;9.944;2022-12-18T06:10:16;15.68;;;8.73;;
17141;SDS011;32805;53.556;9.944;2022-12-18T06:12:46;10.90;;;8.02;;
17141;SDS011;32805;53.556;9.944;2022-12-18T06:15:15;13.63;;;8.37;;
17141;SDS011;32805;53.556;9.944;2022-12-18T06:17:45;14.52;;;9.73;;
17141;SDS011;32805;53.556;9.944;2022-12-18T06:20:16;13.73;;;9.23;;
17141;SDS011;32805;53.556;9.944;2022-12-18T06:22:49;12.63;;;8.15;;
17141;SDS011;32805;53.556;9.944;2022-12-18T06:25:20;15.13;;;8.05;;
17141;SDS011;32805;53.556;9.944;2022-12-18T06:27:51;13.10;;;8.60;;
17141;SDS011;32805;53.556;9.944;2022-12-18T06:30:25;14.88;;;8.40;;
17141;SDS011;32805;53.556;9.944;2022-12-18T06:32:56;14.23;;;9.25;;
17141;SDS011;32805;53.556;9.944;2022-12-18T06:35:33;13.52;;;8.43;;
17141;SDS011;32805;53.556;9.944;2022-12-18T06:38:01;12.30;;;7.75;;
17141;SDS011;32805;53.556;9.944;2022-12-18T06:40:30;15.20;;;8.35;;
17141;SDS011;32805;53.556;9.944;2022-12-18T06:43:03;11.85;;;7.97;;
17141;SDS011;32805;53.556;9.944;2022-12-18T06:45:32;11.15;;;8.48;;
17141;SDS011;32805;53.556;9.944;2022-12-18T06:48:00;14.85;;;8.48;;
17141;SDS011;32805;53.556;9.944;2022-12-18T06:50:29;11.90;;;7.38;;
17141;SDS011;32805;53.556;9.944;2022-12-18T06:52:59;12.27;;;8.90;;
17141;SDS011;32805;53.556;9.944;2022-12-18T06:55:27;17.40;;;8.98;;
17141;SDS011;32805;53.556;9.944;2022-12-18T06:57:55;14.35;;;8.77;;
17141;SDS011;32805;53.556;9.944;2022-12-18T07:00:23;15.65;;;9.23;;
17141;SDS011;32805;53.556;9.944;2022-12-18T07:02:52;16.10;;;8.90;;
17141;SDS011;32805;53.556;9.944;2022-12-18T07:05:20;12.50;;;8.38;;
17141;SDS011;32805;53.556;9.944;2022-12-18T07:07:49;12.20;;;9.00;;
17141;SDS011;32805;53.556;9.944;2022-12-18T07:10:17;11.53;;;8.83;;
17141;SDS011;32805;53.556;9.944;2022-12-18T07:12:45;12.40;;;8.18;;
17141;SDS011;32805;53.556;9.944;2022-12-18T07:15:13;11.57;;;8.10;;
17141;SDS011;32805;53.556;9.944;2022-12-18T07:17:41;12.88;;;7.68;;
17141;SDS011;32805;53.556;9.944;2022-12-18T07:20:10;13.75;;;8.27;;
17141;SDS011;32805;53.556;9.944;2022-12-18T07:22:38;13.80;;;8.40;;
17141;SDS011;32805;53.556;9.944;2022-12-18T07:25:22;13.95;;;8.90;;
17141;SDS011;32805;53.556;9.944;2022-12-18T07:27:51;12.63;;;7.95;;
17141;SDS011;32805;53.556;9.944;2022-12-18T07:30:19;16.08;;;9.73;;
17141;SDS011;32805;53.556;9.944;2022-12-18T07:32:48;13.40;;;9.32;;
17141;SDS011;32805;53.556;9.944;2022-12-18T07:35:16;13.63;;;8.10;;
17141;SDS011;32805;53.556;9.944;2022-12-18T07:37:50;12.57;;;8.93;;
17141;SDS011;32805;53.556;9.944;2022-12-18T07:40:18;12.73;;;8.98;;
17141;SDS011;32805;53.556;9.944;2022-12-18T07:42:47;14.15;;;8.20;;
17141;SDS011;32805;53.556;9.944;2022-12-18T07:45:15;14.23;;;8.57;;
17141;SDS011;32805;53.556;9.944;2022-12-18T07:47:43;13.27;;;9.27;;
17141;SDS011;32805;53.556;9.944;2022-12-18T07:50:11;13.55;;;8.90;;
17141;SDS011;32805;53.556;9.944;2022-12-18T07:52:39;18.80;;;9.50;;
17141;SDS011;32805;53.556;9.944;2022-12-18T07:55:07;17.08;;;8.68;;
17141;SDS011;32805;53.556;9.944;2022-12-18T07:57:36;14.90;;;8.95;;
17141;SDS011;32805;53.556;9.944;2022-12-18T08:00:17;15.18;;;9.20;;
17141;SDS011;32805;53.556;9.944;2022-12-18T08:02:46;10.05;;;8.20;;
17141;SDS011;32805;53.556;9.944;2022-12-18T08:05:14;12.57;;;9.10;;
17141;SDS011;32805;53.556;9.944;2022-12-18T08:07:47;14.52;;;9.20;;
17141;SDS011;32805;53.556;9.944;2022-12-18T08:10:17;15.75;;;11.00;;
17141;SDS011;32805;53.556;9.944;2022-12-18T08:12:45;15.45;;;8.82;;
17141;SDS011;32805;53.556;9.944;2022-12-18T08:15:15;12.80;;;9.02;;
17141;SDS011;32805;53.556;9.944;2022-12-18T08:17:46;15.73;;;9.00;;
17141;SDS011;32805;53.556;9.944;2022-12-18T08:20:16;11.40;;;8.85;;
17141;SDS011;32805;53.556;9.944;2022-12-18T08:22:44;16.45;;;9.45;;
17141;SDS011;32805;53.556;9.944;2022-12-18T08:25:12;14.77;;;8.90;;
17141;SDS011;32805;53.556;9.944;2022-12-18T08:27:40;15.63;;;9.05;;
17141;SDS011;32805;53.556;9.944;2022-12-18T08:30:10;14.65;;;9.00;;
17141;SDS011;32805;53.556;9.944;2022-12-18T08:32:38;13.30;;;8.70;;
17141;SDS011;32805;53.556;9.944;2022-12-18T08:35:09;12.50;;;9.13;;
17141;SDS011;32805;53.556;9.944;2022-12-18T08:37:38;13.50;;;7.97;;
17141;SDS011;32805;53.556;9.944;2022-12-18T08:40:08;13.98;;;8.45;;
17141;SDS011;32805;53.556;9.944;2022-12-18T08:42:37;12.00;;;8.30;;
17141;SDS011;32805;53.556;9.944;2022-12-18T08:45:22;15.48;;;9.23;;
17141;SDS011;32805;53.556;9.944;2022-12-18T08:47:51;12.73;;;9.05;;
17141;SDS011;32805;53.556;9.944;2022-12-18T08:50:23;10.82;;;8.10;;
17141;SDS011;32805;53.556;9.944;2022-12-18T08:52:55;11.70;;;8.63;;
17141;SDS011;32805;53.556;9.944;2022-12-18T08:55:23;12.60;;;9.25;;
17141;SDS011;32805;53.556;9.944;2022-12-18T08:57:52;13.02;;;8.07;;
17141;SDS011;32805;53.556;9.944;2022-12-18T09:00:21;11.70;;;7.70;;
17141;SDS011;32805;53.556;9.944;2022-12-18T09:02:50;14.90;;;8.57;;
17141;SDS011;32805;53.556;9.944;2022-12-18T09:05:18;13.63;;;8.77;;
17141;SDS011;32805;53.556;9.944;2022-12-18T09:07:51;14.38;;;9.15;;
17141;SDS011;32805;53.556;9.944;2022-12-18T09:10:21;11.45;;;8.43;;
17141;SDS011;32805;53.556;9.944;2022-12-18T09:12:53;15.60;;;9.40;;
17141;SDS011;32805;53.556;9.944;2022-12-18T09:15:23;14.95;;;11.00;;
17141;SDS011;32805;53.556;9.944;2022-12-18T09:17:57;13.77;;;9.15;;
17141;SDS011;32805;53.556;9.944;2022-12-18T09:20:24;16.67;;;9.32;;
17141;SDS011;32805;53.556;9.944;2022-12-18T09:22:56;11.98;;;8.68;;
17141;SDS011;32805;53.556;9.944;2022-12-18T09:25:24;14.30;;;9.20;;
17141;SDS011;32805;53.556;9.944;2022-12-18T09:27:51;11.50;;;8.77;;
17141;SDS011;32805;53.556;9.944;2022-12-18T09:30:19;13.57;;;8.60;;
17141;SDS011;32805;53.556;9.944;2022-12-18T09:32:47;16.58;;;10.00;;
17141;SDS011;32805;53.556;9.944;2022-12-18T09:35:15;11.73;;;9.63;;
17141;SDS011;32805;53.556;9.944;2022-12-18T09:37:43;13.43;;;9.20;;
17141;SDS011;32805;53.556;9.944;2022-12-18T09:40:14;15.05;;;9.68;;
17141;SDS011;32805;53.556;9.944;2022-12-18T09:42:43;12.30;;;8.60;;
17141;SDS011;32805;53.556;9.944;2022-12-18T09:45:16;12.57;;;9.25;;
17141;SDS011;32805;53.556;9.944;2022-12-18T09:47:45;13.55;;;9.00;;
17141;SDS011;32805;53.556;9.944;2022-12-18T09:50:18;13.77;;;9.65;;
17141;SDS011;32805;53.556;9.944;2022-12-18T09:53:01;14.40;;;9.65;;
17141;SDS011;32805;53.556;9.944;2022-12-18T09:55:37;15.25;;;9.95;;
17141;SDS011;32805;53.556;9.944;2022-12-18T09:58:13;15.23;;;9.10;;
17141;SDS011;32805;53.556;9.944;2022-12-18T10:00:44;16.77;;;9.52;;
17141;SDS011;32805;53.556;9.944;2022-12-18T10:03:12;12.98;;;9.55;;
17141;SDS011;32805;53.556;9.944;2022-12-18T10:05:43;12.88;;;9.82;;
17141;SDS011;32805;53.556;9.944;2022-12-18T10:08:22;11.32;;;9.10;;
17141;SDS011;32805;53.556;9.944;2022-12-18T10:11:03;11.80;;;9.23;;
17141;SDS011;32805;53.556;9.944;2022-12-18T10:13:41;15.25;;;9.02;;
17141;SDS011;32805;53.556;9.944;2022-12-18T10:16:17;13.50;;;9.93;;
17141;SDS011;32805;53.556;9.944;2022-12-18T10:18:56;15.18;;;9.70;;
17141;SDS011;32805;53.556;9.944;2022-12-18T10:21:45;12.70;;;9.65;;
17141;SDS011;32805;53.556;9.944;2022-12-18T10:24:24;13.90;;;8.77;;
17141;SDS011;32805;53.556;9.944;2022-12-18T10:27:06;14.73;;;9.38;;
17141;SDS011;32805;53.556;9.944;2022-12-18T10:29:41;12.60;;;8.55;;
17141;SDS011;32805;53.556;9.944;2022-12-18T10:32:13;12.18;;;8.98;;
17141;SDS011;32805;53.556;9.944;2022-12-18T10:34:45;12.52;;;9.65;;
17141;SDS011;32805;53.556;9.944;2022-12-18T10:37:15;13.80;;;9.10;;
17141;SDS011;32805;53.556;9.944;2022-12-18T10:40:04;16.05;;;8.88;;
17141;SDS011;32805;53.556;9.944;2022-12-18T10:42:49;15.20;;;9.77;;
17141;SDS011;32805;53.556;9.944;2022-12-18T10:45:31;19.27;;;10.43;;
17141;SDS011;32805;53.556;9.944;2022-12-18T10:47:59;12.55;;;9.00;;
17141;SDS011;32805;53.556;9.944;2022-12-18T10:50:29;14.48;;;8.88;;
17141;SDS011;32805;53.556;9.944;2022-12-18T10:53:20;12.73;;;8.65;;
17141;SDS011;32805;53.556;9.944;2022-12-18T10:55:49;16.30;;;10.57;;
17141;SDS011;32805;53.556;9.944;2022-12-18T10:58:24;14.55;;;9.52;;
17141;SDS011;32805;53.556;9.944;2022-12-18T11:03:44;13.82;;;9.05;;
17141;SDS011;32805;53.556;9.944;2022-12-18T11:06:16;16.85;;;9.57;;
17141;SDS011;32805;53.556;9.944;2022-12-18T11:08:56;16.73;;;9.60;;
17141;SDS011;32805;53.556;9.944;2022-12-18T11:11:25;16.27;;;10.05;;
17141;SDS011;32805;53.556;9.944;2022-12-18T11:14:01;14.15;;;9.85;;
17141;SDS011;32805;53.556;9.944;2022-12-18T11:16:33;14.73;;;8.70;;
17141;SDS011;32805;53.556;9.944;2022-12-18T11:19:28;12.88;;;8.75;;
17141;SDS011;32805;53.556;9.944;2022-12-18T11:22:00;16.73;;;9.80;;
17141;SDS011;32805;53.556;9.944;2022-12-18T11:24:30;14.65;;;9.77;;
17141;SDS011;32805;53.556;9.944;2022-12-18T11:27:03;13.55;;;10.02;;
17141;SDS011;32805;53.556;9.944;2022-12-18T11:29:35;14.63;;;9.70;;
17141;SDS011;32805;53.556;9.944;2022-12-18T11:32:29;16.40;;;10.35;;
17141;SDS011;32805;53.556;9.944;2022-12-18T11:35:08;15.43;;;9.50;;
17141;SDS011;32805;53.556;9.944;2022-12-18T11:37:43;17.02;;;10.43;;
17141;SDS011;32805;53.556;9.944;2022-12-18T11:40:16;19.05;;;9.98;;
17141;SDS011;32805;53.556;9.944;2022-12-18T11:42:48;15.15;;;9.48;;
17141;SDS011;32805;53.556;9.944;2022-12-18T11:45:29;16.50;;;10.85;;
17141;SDS011;32805;53.556;9.944;2022-12-18T11:48:02;16.45;;;9.82;;
17141;SDS011;32805;53.556;9.944;2022-12-18T11:50:41;15.10;;;9.77;;
17141;SDS011;32805;53.556;9.944;2022-12-18T11:53:14;12.93;;;9.52;;
17141;SDS011;32805;53.556;9.944;2022-12-18T11:55:46;13.40;;;9.80;;
17141;SDS011;32805;53.556;9.944;2022-12-18T11:58:21;17.25;;;9.48;;
17141;SDS011;32805;53.556;9.944;2022-12-18T12:01:05;12.70;;;8.07;;
17141;SDS011;32805;53.556;9.944;2022-12-18T12:03:49;12.73;;;9.25;;
17141;SDS011;32805;53.556;9.944;2022-12-18T12:06:38;15.65;;;8.88;;
17141;SDS011;32805;53.556;9.944;2022-12-18T12:09:14;13.23;;;9.50;;
17141;SDS011;32805;53.556;9.944;2022-12-18T12:11:54;14.02;;;9.60;;
17141;SDS011;32805;53.556;9.944;2022-12-18T12:14:38;13.93;;;9.15;;
17141;SDS011;32805;53.556;9.944;2022-12-18T12:17:19;14.73;;;8.55;;
17141;SDS011;32805;53.556;9.944;2022-12-18T12:19:53;12.90;;;9.30;;
17141;SDS011;32805;53.556;9.944;2022-12-18T12:22:32;12.95;;;8.65;;
17141;SDS011;32805;53.556;9.944;2022-12-18T12:25:17;14.60;;;9.10;;
17141;SDS011;32805;53.556;9.944;2022-12-18T12:27:56;16.33;;;9.52;;
17141;SDS011;32805;53.556;9.944;2022-12-18T12:30:35;14.57;;;9.15;;
17141;SDS011;32805;53.556;9.944;2022-12-18T12:33:17;14.25;;;9.00;;
17141;SDS011;32805;53.556;9.944;2022-12-18T12:36:01;15.52;;;8.88;;
17141;SDS011;32805;53.556;9.944;2022-12-18T12:38:40;14.43;;;9.48;;
17141;SDS011;32805;53.556;9.944;2022-12-18T12:41:18;14.40;;;9.57;;
17141;SDS011;32805;53.556;9.944;2022-12-18T12:44:07;16.52;;;10.32;;
17141;SDS011;32805;53.556;9.944;2022-12-18T12:46:41;14.32;;;10.10;;
17141;SDS011;32805;53.556;9.944;2022-12-18T12:49:13;15.60;;;9.38;;
17141;SDS011;32805;53.556;9.944;2022-12-18T12:51:45;16.80;;;10.10;;
17141;SDS011;32805;53.556;9.944;2022-12-18T12:54:18;15.68;;;9.48;;
17141;SDS011;32805;53.556;9.944;2022-12-18T12:56:52;15.32;;;9.07;;
17141;SDS011;32805;53.556;9.944;2022-12-18T12:59:26;18.65;;;11.15;;
17141;SDS011;32805;53.556;9.944;2022-12-18T13:02:04;16.80;;;10.23;;
17141;SDS011;32805;53.556;9.944;2022-12-18T13:04:45;19.00;;;10.50;;
17141;SDS011;32805;53.556;9.944;2022-12-18T13:07:17;19.95;;;11.27;;
17141;SDS011;32805;53.556;9.944;2022-12-18T13:12:53;17.77;;;11.10;;
17141;SDS011;32805;53.556;9.944;2022-12-18T13:15:25;20.08;;;10.93;;
17141;SDS011;32805;53.556;9.944;2022-12-18T13:18:04;17.30;;;11.27;;
17141;SDS011;32805;53.556;9.944;2022-12-18T13:20:39;17.52;;;10.60;;
17141;SDS011;32805;53.556;9.944;2022-12-18T13:23:26;17.23;;;9.70;;
17141;SDS011;32805;53.556;9.944;2022-12-18T13:25:57;19.42;;;9.05;;
17141;SDS011;32805;53.556;9.944;2022-12-18T13:34:26;15.88;;;10.07;;
17141;SDS011;32805;53.556;9.944;2022-12-18T13:43:24;18.63;;;10.63;;
17141;SDS011;32805;53.556;9.944;2022-12-18T13:46:00;22.50;;;11.60;;
17141;SDS011;32805;53.556;9.944;2022-12-18T13:48:32;18.55;;;10.63;;
17141;SDS011;32805;53.556;9.944;2022-12-18T13:51:03;19.83;;;10.90;;
17141;SDS011;32805;53.556;9.944;2022-12-18T13:53:36;21.05;;;11.80;;
17141;SDS011;32805;53.556;9.944;2022-12-18T13:56:09;21.50;;;11.95;;
17141;SDS011;32805;53.556;9.944;2022-12-18T13:58:47;20.05;;;12.15;;
17141;SDS011;32805;53.556;9.944;2022-12-18T14:01:33;19.33;;;11.00;;
17141;SDS011;32805;53.556;9.944;2022-12-18T14:04:08;22.15;;;12.50;;
17141;SDS011;32805;53.556;9.944;2022-12-18T14:06:46;22.65;;;12.00;;
17141;SDS011;32805;53.556;9.944;2022-12-18T14:09:23;23.02;;;12.15;;
17141;SDS011;32805;53.556;9.944;2022-12-18T14:11:55;24.83;;;12.43;;
17141;SDS011;32805;53.556;9.944;2022-12-18T14:14:40;23.30;;;11.80;;
17141;SDS011;32805;53.556;9.944;2022-12-18T14:17:11;17.90;;;11.25;;
17141;SDS011;32805;53.556;9.944;2022-12-18T14:19:42;20.08;;;10.90;;
17141;SDS011;32805;53.556;9.944;2022-12-18T14:22:14;19.67;;;12.02;;
17141;SDS011;32805;53.556;9.944;2022-12-18T14:24:46;26.58;;;12.50;;
17141;SDS011;32805;53.556;9.944;2022-12-18T14:27:20;25.58;;;12.43;;
17141;SDS011;32805;53.556;9.944;2022-12-18T14:29:50;25.70;;;11.50;;
17141;SDS011;32805;53.556;9.944;2022-12-18T14:32:19;25.40;;;12.13;;
17141;SDS011;32805;53.556;9.944;2022-12-18T14:34:51;25.95;;;12.65;;
17141;SDS011;32805;53.556;9.944;2022-12-18T14:37:21;20.38;;;12.13;;
17141;SDS011;32805;53.556;9.944;2022-12-18T14:39:55;23.67;;;12.65;;
17141;SDS011;32805;53.556;9.944;2022-12-18T14:42:25;24.10;;;12.93;;
17141;SDS011;32805;53.556;9.944;2022-12-18T14:48:08;20.88;;;11.88;;
17141;SDS011;32805;53.556;9.944;2022-12-18T14:50:55;22.42;;;12.18;;
17141;SDS011;32805;53.556;9.944;2022-12-18T14:53:32;28.33;;;13.50;;
17141;SDS011;32805;53.556;9.944;2022-12-18T14:56:17;24.00;;;12.27;;
17141;SDS011;32805;53.556;9.944;2022-12-18T14:58:48;27.80;;;13.73;;
17141;SDS011;32805;53.556;9.944;2022-12-18T15:01:21;30.42;;;14.35;;
17141;SDS011;32805;53.556;9.944;2022-12-18T15:03:52;22.98;;;13.43;;
17141;SDS011;32805;53.556;9.944;2022-12-18T15:06:24;27.83;;;13.63;;
17141;SDS011;32805;53.556;9.944;2022-12-18T15:08:54;24.80;;;13.27;;
17141;SDS011;32805;53.556;9.944;2022-12-18T15:11:26;25.10;;;12.90;;
17141;SDS011;32805;53.556;9.944;2022-12-18T15:13:58;30.33;;;15.80;;
17141;SDS011;32805;53.556;9.944;2022-12-18T15:16:27;28.60;;;14.43;;
17141;SDS011;32805;53.556;9.944;2022-12-18T15:18:54;30.83;;;14.68;;
17141;SDS011;32805;53.556;9.944;2022-12-18T15:21:22;31.35;;;15.18;;
17141;SDS011;32805;53.556;9.944;2022-12-18T15:23:51;24.38;;;12.18;;
17141;SDS011;32805;53.556;9.944;2022-12-18T15:26:23;28.48;;;13.77;;
17141;SDS011;32805;53.556;9.944;2022-12-18T15:28:55;24.50;;;13.45;;
17141;SDS011;32805;53.556;9.944;2022-12-18T15:31:28;31.10;;;14.68;;
17141;SDS011;32805;53.556;9.944;2022-12-18T15:34:01;28.40;;;14.65;;
17141;SDS011;32805;53.556;9.944;2022-12-18T15:36:49;26.85;;;13.23;;
17141;SDS011;32805;53.556;9.944;2022-12-18T15:39:17;25.02;;;14.15;;
17141;SDS011;32805;53.556;9.944;2022-12-18T15:41:45;28.13;;;13.50;;
17141;SDS011;32805;53.556;9.944;2022-12-18T15:44:31;29.48;;;13.77;;
17141;SDS011;32805;53.556;9.944;2022-12-18T15:46:59;24.02;;;13.27;;